Time;durP1;ratioP1;P1;durP2;ratioP2;P2;SDS_P1;SDS_P2;PMS_P1;PMS_P2;Temp;Humidity;BMP_temperature;BMP_pressure;BME280_temperature;BME280_humidity;BME280_pressure;Samples;Min_cycle;Max_cycle;Signal;HPM_P1;HPM_P2
2023/12/20 00:02:03;;;;;;;0.00;0.00;;;;;;;6.21;100.00;147736.56;5025435;28;20224;-55
2023/12/20 00:04:32;;;;;;;0.00;0.00;;;;;;;6.12;100.00;147714.19;5025484;28;20228;-55
2023/12/20 00:06:59;;;;;;;0.00;0.00;;;;;;;5.87;100.00;147654.56;5027003;28;20224;-53
2023/12/20 00:09:26;;;;;;;0.00;0.00;;;;;;;5.89;100.00;147659.53;5020439;28;20247;-54
2023/12/20 00:11:52;;;;;;;0.00;0.00;;;;;;;5.82;100.00;147642.16;5021036;28;20245;-56
2023/12/20 00:14:19;;;;;;;0.00;0.00;;;;;;;5.66;100.00;147603.69;5020500;28;20235;-53
2023/12/20 00:16:47;;;;;;;0.00;0.00;;;;;;;5.75;100.00;147626.03;5026304;28;20216;-53
2023/12/20 00:19:13;;;;;;;0.00;0.00;;;;;;;5.73;100.00;147621.06;5024288;28;20231;-55
2023/12/20 00:21:40;;;;;;;0.00;0.00;;;;;;;5.74;100.00;147623.53;5026204;28;20228;-54
2023/12/20 00:24:07;;;;;;;0.00;0.00;;;;;;;5.78;100.00;147633.47;5023595;28;20255;-53
2023/12/20 00:26:34;;;;;;;0.00;0.00;;;;;;;5.82;100.00;147642.16;5026413;28;20230;-55
2023/12/20 00:29:00;;;;;;;0.00;0.00;;;;;;;5.78;100.00;147632.22;5027085;28;20230;-55
2023/12/20 00:31:27;;;;;;;0.00;0.00;;;;;;;5.83;100.00;147644.63;5023338;28;20720;-55
2023/12/20 00:33:56;;;;;;;0.00;0.00;;;;;;;5.79;100.00;147635.97;5026739;28;20215;-55
2023/12/20 00:36:22;;;;;;;0.00;0.00;;;;;;;5.75;100.00;147627.25;5024304;28;23247;-55
2023/12/20 00:38:49;;;;;;;0.00;0.00;;;;;;;5.69;100.00;147611.13;5025903;28;20232;-53
2023/12/20 00:41:16;;;;;;;0.00;0.00;;;;;;;5.73;100.00;147621.06;5023444;28;20306;-54
2023/12/20 00:43:43;;;;;;;0.00;0.00;;;;;;;5.74;100.00;147624.75;5026080;28;20219;-55
2023/12/20 00:46:09;;;;;;;0.00;0.00;;;;;;;5.78;100.00;147632.22;5022404;28;20235;-53
2023/12/20 00:48:36;;;;;;;0.00;0.00;;;;;;;5.76;100.00;147628.50;5023916;28;20221;-54
2023/12/20 00:51:04;;;;;;;0.00;0.00;;;;;;;5.76;100.00;147629.72;5025045;28;20221;-55
2023/12/20 00:53:31;;;;;;;0.00;0.00;;;;;;;5.84;100.00;147647.09;5023998;28;20243;-55
2023/12/20 00:55:58;;;;;;;0.00;0.00;;;;;;;5.86;100.00;147652.06;5026555;28;20751;-54
2023/12/20 00:58:25;;;;;;;0.00;0.00;;;;;;;5.93;100.00;147668.19;5023708;28;20227;-53
2023/12/20 01:00:51;;;;;;;0.00;0.00;;;;;;;5.84;100.00;147647.09;5008364;28;20232;-55
2023/12/20 01:03:18;;;;;;;0.00;0.00;;;;;;;5.85;100.00;147650.81;5023141;28;20754;-55
2023/12/20 01:05:44;;;;;;;0.07;0.07;;;;;;;5.82;100.00;147643.41;5026494;28;20223;-54
2023/12/20 01:08:12;;;;;;;0.00;0.00;;;;;;;5.83;100.00;147645.84;5022838;28;20227;-55
2023/12/20 01:10:40;;;;;;;0.00;0.00;;;;;;;5.80;100.00;147637.19;5022412;28;20219;-55
2023/12/20 01:13:08;;;;;;;0.00;0.00;;;;;;;5.79;100.00;147635.97;5022752;28;20232;-55
2023/12/20 01:15:35;;;;;;;0.00;0.00;;;;;;;5.79;100.00;147634.69;5025663;28;20228;-53
2023/12/20 01:18:02;;;;;;;0.10;0.10;;;;;;;5.71;100.00;147617.31;5025879;28;20232;-55
2023/12/20 01:20:29;;;;;;;0.00;0.00;;;;;;;5.70;100.00;147614.84;5021879;28;20877;-53
2023/12/20 01:22:55;;;;;;;0.00;0.00;;;;;;;5.70;100.00;147614.84;5025227;28;20231;-54
2023/12/20 01:25:23;;;;;;;0.00;0.00;;;;;;;5.69;100.00;147611.13;5003601;28;20216;-55
2023/12/20 01:27:50;;;;;;;0.00;0.00;;;;;;;5.72;100.00;147619.78;5026034;28;20223;-54
2023/12/20 01:30:16;;;;;;;0.00;0.00;;;;;;;5.70;100.00;147613.59;5022512;28;20627;-55
2023/12/20 01:32:43;;;;;;;0.00;0.00;;;;;;;5.67;100.00;147607.38;5025686;28;20580;-55
2023/12/20 01:35:09;;;;;;;0.00;0.00;;;;;;;5.69;100.00;147611.13;5022013;28;20209;-55
2023/12/20 01:37:36;;;;;;;0.00;0.00;;;;;;;5.72;100.00;147618.56;5008087;28;20234;-53
2023/12/20 01:40:03;;;;;;;0.00;0.00;;;;;;;5.76;100.00;147629.72;5019635;28;20580;-53
2023/12/20 01:42:32;;;;;;;0.00;0.00;;;;;;;5.76;100.00;147629.72;5022381;28;20244;-54
2023/12/20 01:44:58;;;;;;;0.00;0.00;;;;;;;5.71;100.00;147617.31;5020999;28;20216;-54
2023/12/20 01:47:26;;;;;;;0.00;0.00;;;;;;;5.75;100.00;147626.03;5021260;28;20278;-54
2023/12/20 01:49:53;;;;;;;0.00;0.00;;;;;;;5.69;100.00;147611.13;5023130;28;20227;-54
2023/12/20 01:52:21;;;;;;;0.00;0.00;;;;;;;5.74;100.00;147624.75;5020096;28;20223;-53
2023/12/20 01:54:48;;;;;;;0.00;0.00;;;;;;;5.75;100.00;147626.03;5024805;28;20224;-53
2023/12/20 01:57:15;;;;;;;0.00;0.00;;;;;;;5.78;100.00;147633.47;5006515;28;20227;-53
2023/12/20 01:59:44;;;;;;;0.00;0.00;;;;;;;5.71;100.00;147616.09;5025107;28;20234;-52
2023/12/20 02:02:12;;;;;;;0.00;0.00;;;;;;;5.79;100.00;147635.97;5021337;28;20291;-54
2023/12/20 02:04:39;;;;;;;0.00;0.00;;;;;;;5.82;100.00;147642.16;5024200;28;20228;-53
2023/12/20 02:07:06;;;;;;;0.00;0.00;;;;;;;5.76;100.00;147629.72;5022498;28;20722;-54
2023/12/20 02:09:34;;;;;;;0.00;0.00;;;;;;;5.73;100.00;147621.06;5024703;28;20718;-54
2023/12/20 02:12:01;;;;;;;0.00;0.00;;;;;;;5.74;100.00;147624.75;5023625;28;20236;-52
2023/12/20 02:14:30;;;;;;;0.00;0.00;;;;;;;5.73;100.00;147621.06;5021859;28;20289;-52
2023/12/20 02:16:58;;;;;;;0.00;0.00;;;;;;;5.70;100.00;147614.84;5003143;28;20251;-53
2023/12/20 02:19:24;;;;;;;0.00;0.00;;;;;;;5.74;100.00;147624.75;5020774;28;20750;-53
2023/12/20 02:22:06;;;;;;;0.00;0.00;;;;;;;5.72;100.00;147618.56;5024598;28;20232;-52
2023/12/20 02:24:32;;;;;;;0.00;0.00;;;;;;;5.68;100.00;147608.66;5022379;28;20238;-52
2023/12/20 02:26:59;;;;;;;0.00;0.00;;;;;;;5.62;100.00;147594.97;5024954;28;20224;-54
2023/12/20 02:29:26;;;;;;;0.00;0.00;;;;;;;5.64;100.00;147599.94;5022053;28;20224;-54
2023/12/20 02:31:53;;;;;;;0.00;0.00;;;;;;;5.73;100.00;147621.06;5024696;28;20965;-53
2023/12/20 02:34:20;;;;;;;0.00;0.00;;;;;;;5.70;100.00;147614.84;5019915;28;20218;-52
2023/12/20 02:36:46;;;;;;;0.00;0.00;;;;;;;5.73;100.00;147621.06;5023706;28;20235;-52
2023/12/20 02:39:15;;;;;;;0.00;0.00;;;;;;;5.67;100.00;147606.16;5020477;28;20564;-52
2023/12/20 02:41:41;;;;;;;0.00;0.00;;;;;;;5.65;100.00;147602.41;5022520;28;20220;-52
2023/12/20 02:44:08;;;;;;;0.00;0.00;;;;;;;5.62;100.00;147594.97;5020568;28;20223;-55
2023/12/20 02:46:35;;;;;;;0.00;0.00;;;;;;;5.59;100.00;147587.53;5023921;28;20230;-54
2023/12/20 02:49:01;;;;;;;0.00;0.00;;;;;;;5.60;100.00;147591.28;5024275;28;20235;-53
2023/12/20 02:51:28;;;;;;;0.00;0.00;;;;;;;5.63;100.00;147596.22;5019769;28;20223;-53
2023/12/20 02:53:54;;;;;;;0.00;0.00;;;;;;;5.59;100.00;147588.78;5021434;28;20222;-54
2023/12/20 02:56:22;;;;;;;0.00;0.00;;;;;;;5.56;100.00;147580.06;5018005;28;20234;-54
2023/12/20 02:58:49;;;;;;;0.10;0.10;;;;;;;5.55;100.00;147578.84;5016637;28;20212;-53
2023/12/20 03:01:15;;;;;;;0.00;0.00;;;;;;;5.56;100.00;147581.34;5018701;28;20224;-53
2023/12/20 03:03:42;;;;;;;0.00;0.00;;;;;;;5.57;100.00;147583.81;5022509;28;20231;-53
2023/12/20 03:06:09;;;;;;;0.00;0.00;;;;;;;5.51;100.00;147567.66;5019784;28;20246;-55
2023/12/20 03:08:35;;;;;;;0.00;0.00;;;;;;;5.50;100.00;147565.19;5021365;28;20235;-55
2023/12/20 03:11:02;;;;;;;0.00;0.00;;;;;;;5.48;100.00;147561.47;5021062;28;20578;-52
2023/12/20 03:13:30;;;;;;;0.00;0.00;;;;;;;5.48;100.00;147561.47;5016093;28;20231;-54
2023/12/20 03:15:56;;;;;;;0.00;0.00;;;;;;;5.50;100.00;147565.19;5023114;28;20238;-53
2023/12/20 03:18:23;;;;;;;0.00;0.00;;;;;;;5.49;100.00;147563.97;5002563;28;20227;-55
2023/12/20 03:20:50;;;;;;;0.03;0.03;;;;;;;5.52;100.00;147570.13;5023141;28;20232;-54
2023/12/20 03:23:17;;;;;;;0.00;0.00;;;;;;;5.43;100.00;147550.28;5019602;28;20232;-54
2023/12/20 03:25:43;;;;;;;0.00;0.00;;;;;;;5.46;100.00;147556.50;5027118;28;20851;-55
2023/12/20 03:28:10;;;;;;;0.00;0.00;;;;;;;5.49;100.00;147562.69;5024259;28;20247;-53
2023/12/20 03:30:38;;;;;;;0.00;0.00;;;;;;;5.49;100.00;147562.69;5027320;28;20226;-52
2023/12/20 03:33:05;;;;;;;0.00;0.00;;;;;;;5.50;100.00;147566.44;5024079;28;20220;-53
2023/12/20 03:35:31;;;;;;;0.00;0.00;;;;;;;5.54;100.00;147575.09;5007209;28;20232;-52
2023/12/20 03:37:59;;;;;;;0.07;0.07;;;;;;;5.51;100.00;147567.66;5025814;28;20238;-52
2023/12/20 03:40:26;;;;;;;0.00;0.00;;;;;;;5.46;100.00;147557.72;5022963;28;20706;-52
2023/12/20 03:42:53;;;;;;;0.00;0.00;;;;;;;5.52;100.00;147570.13;5022774;28;20671;-54
2023/12/20 03:45:19;;;;;;;0.00;0.00;;;;;;;5.53;100.00;147572.63;5019438;28;20239;-55
2023/12/20 03:47:47;;;;;;;0.00;0.00;;;;;;;5.46;100.00;147556.50;5024525;28;20231;-53
2023/12/20 03:50:14;;;;;;;0.00;0.00;;;;;;;5.50;100.00;147565.19;5022192;28;20220;-55
2023/12/20 03:52:41;;;;;;;0.00;0.00;;;;;;;5.50;100.00;147565.19;5014868;28;20564;-55
2023/12/20 03:55:07;;;;;;;0.00;0.00;;;;;;;5.46;100.00;147557.72;5022119;28;20217;-53
2023/12/20 03:57:34;;;;;;;0.00;0.00;;;;;;;5.44;100.00;147552.75;5023202;28;20222;-53
2023/12/20 04:00:00;;;;;;;0.00;0.00;;;;;;;5.46;100.00;147556.50;5023849;28;20301;-55
2023/12/20 04:02:27;;;;;;;0.00;0.00;;;;;;;5.46;100.00;147556.50;5021662;28;20733;-55
2023/12/20 04:04:55;;;;;;;0.00;0.00;;;;;;;5.49;100.00;147562.69;5023229;28;20290;-55
2023/12/20 04:07:21;;;;;;;0.00;0.00;;;;;;;5.43;100.00;147550.28;5020101;28;20224;-52
2023/12/20 04:09:48;;;;;;;0.00;0.00;;;;;;;5.38;100.00;147536.66;5024082;28;21442;-53
2023/12/20 04:12:15;;;;;;;0.00;0.00;;;;;;;5.38;100.00;147536.66;5022948;28;20326;-53
2023/12/20 04:14:41;;;;;;;0.00;0.00;;;;;;;5.31;100.00;147521.75;5025350;28;20232;-52
2023/12/20 04:17:08;;;;;;;0.00;0.00;;;;;;;5.34;100.00;147526.72;5023471;28;20722;-54
2023/12/20 04:19:35;;;;;;;0.00;0.00;;;;;;;5.32;100.00;147522.97;5026185;28;20547;-52
2023/12/20 04:22:03;;;;;;;0.00;0.00;;;;;;;5.35;100.00;147529.19;5026282;28;20228;-52
2023/12/20 04:24:32;;;;;;;0.00;0.00;;;;;;;5.28;100.00;147513.09;5023809;28;20687;-53
2023/12/20 04:26:58;;;;;;;0.03;0.03;;;;;;;5.36;100.00;147532.91;5026334;28;20218;-54
2023/12/20 04:29:25;;;;;;;0.00;0.00;;;;;;;5.35;100.00;147530.44;5023855;28;20228;-52
2023/12/20 04:31:52;;;;;;;0.00;0.00;;;;;;;5.39;100.00;147540.34;5201523;23;20222;-54
2023/12/20 04:34:19;;;;;;;0.00;0.00;;;;;;;5.38;100.00;147537.88;4996694;28;20222;-54
2023/12/20 04:36:46;;;;;;;0.10;0.10;;;;;;;5.35;100.00;147530.44;4997865;28;20232;-54
2023/12/20 04:39:14;;;;;;;0.00;0.00;;;;;;;5.34;100.00;147526.72;4998334;28;20228;-54
2023/12/20 04:41:41;;;;;;;0.00;0.00;;;;;;;5.36;100.00;147532.91;4988908;28;20284;-54
2023/12/20 04:44:08;;;;;;;0.00;0.00;;;;;;;5.37;100.00;147535.38;4988048;23;20229;-54
2023/12/20 04:46:34;;;;;;;0.00;0.00;;;;;;;5.42;100.00;147546.59;4997581;28;20863;-52
2023/12/20 04:49:01;;;;;;;0.00;0.00;;;;;;;5.35;100.00;147530.44;4997288;28;20224;-54
2023/12/20 04:51:28;;;;;;;0.00;0.00;;;;;;;5.44;100.00;147551.53;4990165;28;20605;-53
2023/12/20 04:53:54;;;;;;;0.00;0.00;;;;;;;5.47;100.00;147560.22;4978087;28;20237;-54
2023/12/20 04:56:22;;;;;;;0.00;0.00;;;;;;;5.43;100.00;147550.28;4978605;28;20225;-54
2023/12/20 04:58:49;;;;;;;0.00;0.00;;;;;;;5.54;100.00;147575.09;4978012;28;20241;-55
2023/12/20 05:01:16;;;;;;;0.00;0.00;;;;;;;5.54;100.00;147575.09;4976575;28;20225;-52
2023/12/20 05:03:43;;;;;;;0.00;0.00;;;;;;;5.44;100.00;147552.75;4977975;28;20248;-52
2023/12/20 05:06:10;;;;;;;0.00;0.00;;;;;;;5.44;100.00;147551.53;4975305;28;20230;-54
2023/12/20 05:08:37;;;;;;;0.00;0.00;;;;;;;5.46;100.00;147556.50;4978660;28;20221;-54
2023/12/20 05:11:04;;;;;;;0.00;0.00;;;;;;;5.45;100.00;147555.25;4976453;28;20225;-54
2023/12/20 05:13:32;;;;;;;0.00;0.00;;;;;;;5.39;100.00;147540.34;4978112;28;20248;-54
2023/12/20 05:15:59;;;;;;;0.00;0.00;;;;;;;5.35;100.00;147530.44;4981165;28;20236;-55
2023/12/20 05:18:25;;;;;;;0.00;0.00;;;;;;;5.36;100.00;147532.91;4976681;28;20237;-51
2023/12/20 05:20:52;;;;;;;0.00;0.00;;;;;;;5.45;100.00;147555.25;4978113;28;20236;-54
2023/12/20 05:23:20;;;;;;;0.00;0.00;;;;;;;5.51;100.00;147567.66;4976784;28;20229;-51
2023/12/20 05:25:46;;;;;;;0.00;0.00;;;;;;;5.48;100.00;147561.47;4977438;28;20741;-52
2023/12/20 05:28:13;;;;;;;0.00;0.00;;;;;;;5.44;100.00;147552.75;4975137;28;20236;-54
2023/12/20 05:30:41;;;;;;;0.00;0.00;;;;;;;5.43;100.00;147549.06;4979724;28;20236;-52
2023/12/20 05:33:07;;;;;;;0.00;0.00;;;;;;;5.50;100.00;147565.19;4967523;28;20213;-52
2023/12/20 05:35:34;;;;;;;0.00;0.00;;;;;;;5.56;100.00;147580.06;4979981;28;20245;-54
2023/12/20 05:38:04;;;;;;;0.00;0.00;;;;;;;5.47;100.00;147559.00;4979675;28;20240;-54
2023/12/20 05:40:30;;;;;;;0.00;0.00;;;;;;;5.35;100.00;147530.44;4976892;28;20728;-54
2023/12/20 05:42:57;;;;;;;0.00;0.00;;;;;;;5.45;100.00;147554.03;4978614;28;20248;-52
2023/12/20 05:45:24;;;;;;;0.00;0.00;;;;;;;5.49;100.00;147563.97;4975203;28;20233;-52
2023/12/20 05:47:51;;;;;;;0.00;0.00;;;;;;;5.47;100.00;147560.22;4977538;28;20705;-54
2023/12/20 05:50:18;;;;;;;0.00;0.00;;;;;;;5.37;100.00;147535.38;4975758;28;20244;-52
2023/12/20 05:52:45;;;;;;;0.00;0.00;;;;;;;5.28;100.00;147514.31;4982207;28;20225;-52
2023/12/20 05:55:11;;;;;;;0.00;0.00;;;;;;;5.31;100.00;147520.50;4974951;28;20259;-55
2023/12/20 05:57:38;;;;;;;0.00;0.00;;;;;;;5.23;100.00;147501.91;4979812;28;20227;-54
2023/12/20 06:00:06;;;;;;;0.00;0.00;;;;;;;5.27;100.00;147510.63;4976207;28;20221;-53
2023/12/20 06:02:38;;;;;;;0.00;0.00;;;;;;;5.24;100.00;147504.38;4978996;28;20590;-53
2023/12/20 06:05:07;;;;;;;0.00;0.00;;;;;;;5.23;100.00;147500.69;4975043;28;20232;-54
2023/12/20 06:07:34;;;;;;;0.00;0.00;;;;;;;5.25;100.00;147505.66;4977418;28;20240;-51
2023/12/20 06:10:00;;;;;;;0.10;0.10;;;;;;;5.20;100.00;147493.25;4979702;28;20696;-54
2023/12/20 06:12:28;;;;;;;0.00;0.00;;;;;;;5.24;100.00;147504.38;4975889;28;20233;-50
2023/12/20 06:14:55;;;;;;;0.00;0.00;;;;;;;5.25;100.00;147506.88;4979808;28;20276;-53
2023/12/20 06:17:21;;;;;;;0.00;0.00;;;;;;;5.27;100.00;147510.63;4976262;28;20316;-53
2023/12/20 06:19:48;;;;;;;0.00;0.00;;;;;;;5.28;100.00;147514.31;4978678;28;20314;-52
2023/12/20 06:22:16;;;;;;;0.00;0.00;;;;;;;5.35;100.00;147529.19;4957394;28;20232;-54
2023/12/20 06:24:43;;;;;;;0.00;0.00;;;;;;;5.32;100.00;147522.97;4979238;28;20235;-54
2023/12/20 06:27:09;;;;;;;0.00;0.00;;;;;;;5.23;100.00;147500.69;4974385;28;20221;-54
2023/12/20 06:29:36;;;;;;;0.00;0.00;;;;;;;5.29;100.00;147516.78;4980277;28;20245;-52
2023/12/20 06:32:03;;;;;;;0.00;0.00;;;;;;;5.30;100.00;147519.28;4978862;28;20635;-54
2023/12/20 06:34:32;;;;;;;0.00;0.00;;;;;;;5.31;100.00;147520.50;4975526;28;20682;-53
2023/12/20 06:36:59;;;;;;;0.00;0.00;;;;;;;5.29;100.00;147515.56;4976032;28;20213;-53
2023/12/20 06:39:27;;;;;;;0.00;0.00;;;;;;;5.36;100.00;147532.91;4976260;28;20243;-51
2023/12/20 06:41:54;;;;;;;0.00;0.00;;;;;;;5.31;100.00;147521.75;4977642;28;20226;-52
2023/12/20 06:44:21;;;;;;;0.00;0.00;;;;;;;5.36;100.00;147531.69;4972478;28;20236;-55
2023/12/20 06:46:47;;;;;;;0.00;0.00;;;;;;;5.38;100.00;147536.66;4978755;28;20239;-54
2023/12/20 06:49:14;;;;;;;0.00;0.00;;;;;;;5.31;100.00;147521.75;4974998;28;20229;-54
2023/12/20 06:51:40;;;;;;;0.00;0.00;;;;;;;5.33;100.00;147525.47;4978683;28;20265;-54
2023/12/20 06:54:07;;;;;;;0.00;0.00;;;;;;;5.37;100.00;147535.38;4973651;28;20225;-51
2023/12/20 06:56:35;;;;;;;0.00;0.00;;;;;;;5.41;100.00;147544.09;4976756;28;20233;-55
2023/12/20 06:59:01;;;;;;;0.00;0.00;;;;;;;5.43;100.00;147550.28;4979883;28;20239;-55
2023/12/20 07:01:28;;;;;;;0.00;0.00;;;;;;;5.40;100.00;147541.63;4982163;28;20245;-52
2023/12/20 07:03:55;;;;;;;0.00;0.00;;;;;;;5.41;100.00;147545.31;4980201;28;20233;-52
2023/12/20 07:06:21;;;;;;;0.00;0.00;;;;;;;5.40;100.00;147542.84;4970190;28;20213;-53
2023/12/20 07:08:48;;;;;;;0.00;0.00;;;;;;;5.35;100.00;147529.19;4979050;28;20225;-54
2023/12/20 07:11:14;;;;;;;0.00;0.00;;;;;;;5.30;100.00;147518.06;4976147;28;20225;-51
2023/12/20 07:13:42;;;;;;;0.00;0.00;;;;;;;5.34;100.00;147526.72;4980643;28;20220;-52
2023/12/20 07:16:09;;;;;;;0.00;0.00;;;;;;;5.36;100.00;147532.91;4980282;28;20236;-53
2023/12/20 07:18:36;;;;;;;0.00;0.00;;;;;;;5.36;100.00;147531.69;4982068;28;20631;-52
2023/12/20 07:21:02;;;;;;;0.00;0.00;;;;;;;5.28;100.00;147513.09;4980491;28;20228;-52
2023/12/20 07:23:29;;;;;;;0.00;0.00;;;;;;;5.27;100.00;147511.84;4978884;28;20233;-52
2023/12/20 07:25:56;;;;;;;0.00;0.00;;;;;;;5.27;100.00;147510.63;4979914;28;20221;-53
2023/12/20 07:28:22;;;;;;;0.00;0.00;;;;;;;5.28;100.00;147513.09;4978796;28;20217;-52
2023/12/20 07:30:50;;;;;;;0.00;0.00;;;;;;;5.21;100.00;147496.94;4980291;28;20228;-53
2023/12/20 07:33:17;;;;;;;0.00;0.00;;;;;;;5.21;100.00;147495.72;4980784;28;20732;-54
2023/12/20 07:35:45;;;;;;;0.00;0.00;;;;;;;5.17;100.00;147488.28;4984251;28;20230;-54
2023/12/20 07:38:12;;;;;;;0.00;0.00;;;;;;;5.12;100.00;147475.88;4975890;28;20225;-51
2023/12/20 07:40:39;;;;;;;0.00;0.00;;;;;;;5.12;100.00;147474.59;4981087;28;20232;-52
2023/12/20 07:43:05;;;;;;;0.00;0.00;;;;;;;5.14;100.00;147479.56;4979463;28;20676;-54
2023/12/20 07:45:32;;;;;;;0.00;0.00;;;;;;;5.10;100.00;147470.91;4979785;28;20241;-54
2023/12/20 07:48:00;;;;;;;0.00;0.00;;;;;;;5.11;100.00;147472.13;4982538;28;20616;-52
2023/12/20 07:50:27;;;;;;;0.00;0.00;;;;;;;5.13;100.00;147477.09;4977666;28;20233;-52
2023/12/20 07:52:54;;;;;;;0.00;0.00;;;;;;;5.10;100.00;147470.91;4980465;28;20235;-53
2023/12/20 07:55:20;;;;;;;0.00;0.00;;;;;;;5.13;100.00;147477.09;4977936;28;20670;-51
2023/12/20 07:57:47;;;;;;;0.00;0.00;;;;;;;5.14;100.00;147479.56;4967114;28;20227;-54
2023/12/20 08:00:14;;;;;;;0.00;0.00;;;;;;;5.17;100.00;147488.28;4978527;28;20225;-52
2023/12/20 08:02:41;;;;;;;0.00;0.00;;;;;;;5.23;100.00;147501.91;4980114;28;20239;-53
2023/12/20 08:05:09;;;;;;;0.00;0.00;;;;;;;5.21;100.00;147495.72;4976246;28;20226;-53
2023/12/20 08:07:36;;;;;;;0.00;0.00;;;;;;;5.27;100.00;147510.63;4977699;28;20237;-53
2023/12/20 08:10:02;;;;;;;0.00;0.00;;;;;;;5.23;100.00;147501.91;4977910;28;20277;-51
2023/12/20 08:12:29;;;;;;;0.00;0.00;;;;;;;5.27;100.00;147511.84;4978533;28;20240;-54
2023/12/20 08:14:56;;;;;;;0.10;0.10;;;;;;;5.27;100.00;147510.63;4980780;28;20224;-52
2023/12/20 08:17:24;;;;;;;0.00;0.00;;;;;;;5.23;100.00;147500.69;4980684;28;23635;-54
2023/12/20 08:19:50;;;;;;;0.00;0.00;;;;;;;5.15;100.00;147482.06;4980220;28;20261;-51
2023/12/20 08:22:18;;;;;;;0.00;0.00;;;;;;;5.12;100.00;147475.88;4976267;28;20910;-53
2023/12/20 08:24:45;;;;;;;0.00;0.00;;;;;;;5.02;100.00;147452.25;4981105;28;20236;-52
2023/12/20 08:27:11;;;;;;;0.00;0.00;;;;;;;4.91;100.00;147424.97;4975444;28;20221;-51
2023/12/20 08:29:38;;;;;;;0.00;0.00;;;;;;;4.84;100.00;147407.59;4978818;28;20237;-54
2023/12/20 08:32:05;;;;;;;0.00;0.00;;;;;;;4.76;100.00;147389.00;4975284;28;20239;-53
2023/12/20 08:34:32;;;;;;;0.00;0.00;;;;;;;4.75;100.00;147385.31;4982160;28;20728;-53
2023/12/20 08:36:59;;;;;;;0.00;0.00;;;;;;;4.67;100.00;147367.94;4980739;28;20221;-51
2023/12/20 08:39:27;;;;;;;0.00;0.00;;;;;;;4.66;100.00;147364.19;4977752;28;20249;-52
2023/12/20 08:41:54;;;;;;;0.00;0.00;;;;;;;4.66;100.00;147364.19;4979344;28;20260;-54
2023/12/20 08:44:22;;;;;;;0.00;0.00;;;;;;;4.72;100.00;147380.34;4977593;28;20747;-53
2023/12/20 08:46:49;;;;;;;0.00;0.00;;;;;;;4.85;100.00;147411.34;4981768;28;20227;-52
2023/12/20 08:49:15;;;;;;;0.00;0.00;;;;;;;4.93;100.00;147428.72;4977138;28;20253;-51
2023/12/20 08:51:42;;;;;;;0.00;0.00;;;;;;;5.02;100.00;147452.25;4980072;28;20260;-51
2023/12/20 08:54:08;;;;;;;0.00;0.00;;;;;;;5.19;100.00;147490.75;4976805;28;20237;-52
2023/12/20 08:56:36;;;;;;;0.00;0.00;;;;;;;5.23;100.00;147501.91;4977111;28;20740;-54
2023/12/20 08:59:03;;;;;;;0.00;0.00;;;;;;;5.23;100.00;147500.69;4981406;28;20220;-52
2023/12/20 09:01:30;;;;;;;0.00;0.00;;;;;;;5.14;100.00;147480.84;4976616;28;20237;-54
2023/12/20 09:03:56;;;;;;;0.00;0.00;;;;;;;5.14;100.00;147480.84;4978061;28;20591;-54
2023/12/20 09:06:24;;;;;;;0.00;0.00;;;;;;;5.24;100.00;147503.16;4978663;28;20212;-53
2023/12/20 09:08:50;;;;;;;0.00;0.00;;;;;;;5.24;100.00;147503.16;4982028;28;20221;-52
2023/12/20 09:11:17;;;;;;;0.00;0.00;;;;;;;5.24;100.00;147503.16;4978695;28;20313;-52
2023/12/20 09:13:45;;;;;;;0.00;0.00;;;;;;;5.25;100.00;147506.88;4983597;28;20221;-52
2023/12/20 09:16:12;;;;;;;0.00;0.00;;;;;;;5.39;100.00;147540.34;4976880;28;20558;-55
2023/12/20 09:18:39;;;;;;;0.00;0.00;;;;;;;5.41;100.00;147545.31;4979322;28;20237;-54
2023/12/20 09:21:06;;;;;;;0.00;0.00;;;;;;;5.54;100.00;147576.38;4975766;28;20225;-55
2023/12/20 09:23:32;;;;;;;0.00;0.00;;;;;;;5.51;100.00;147567.66;4978599;28;20252;-53
2023/12/20 09:26:00;;;;;;;0.00;0.00;;;;;;;5.48;100.00;147561.47;4977693;28;20221;-51
2023/12/20 09:28:27;;;;;;;0.00;0.00;;;;;;;5.65;100.00;147601.19;4975001;28;20237;-53
2023/12/20 09:30:55;;;;;;;0.00;0.00;;;;;;;5.63;100.00;147597.44;4977382;28;20247;-55
2023/12/20 09:33:21;;;;;;;0.00;0.00;;;;;;;5.66;100.00;147604.91;4973518;28;20221;-55
2023/12/20 09:35:48;;;;;;;0.00;0.00;;;;;;;5.69;100.00;147611.13;4980246;28;20231;-55
2023/12/20 09:38:15;;;;;;;0.00;0.00;;;;;;;5.64;100.00;147598.72;4964460;28;20225;-55
2023/12/20 09:40:43;;;;;;;0.07;0.07;;;;;;;5.61;100.00;147592.47;4978672;28;20231;-55
2023/12/20 09:43:12;;;;;;;0.00;0.00;;;;;;;5.49;100.00;147563.97;4974962;28;20225;-55
2023/12/20 09:45:40;;;;;;;0.00;0.00;;;;;;;5.60;100.00;147590.00;4976428;28;20592;-54
2023/12/20 09:48:11;;;;;;;0.00;0.00;;;;;;;5.52;100.00;147570.13;4974100;28;20358;-53
2023/12/20 09:50:38;;;;;;;0.00;0.00;;;;;;;5.72;100.00;147619.78;4975088;28;20839;-52
2023/12/20 09:53:05;;;;;;;0.00;0.00;;;;;;;5.70;100.00;147613.59;4976193;28;20220;-53
2023/12/20 09:55:33;;;;;;;0.00;0.00;;;;;;;5.63;100.00;147596.22;4979864;28;20233;-53
2023/12/20 09:58:00;;;;;;;0.00;0.00;;;;;;;5.58;100.00;147586.31;4978559;28;20279;-55
2023/12/20 10:00:27;;;;;;;0.00;0.00;;;;;;;5.58;100.00;147586.31;4976288;28;20266;-54
2023/12/20 10:02:58;;;;;;;0.00;0.00;;;;;;;5.73;100.00;147622.28;4976588;28;20257;-54
2023/12/20 10:05:28;;;;;;;0.00;0.00;;;;;;;6.00;100.00;147685.56;4962248;28;20244;-52
2023/12/20 10:07:55;;;;;;;0.00;0.00;;;;;;;6.00;100.00;147686.88;4977745;28;20226;-52
2023/12/20 10:10:22;;;;;;;0.00;0.00;;;;;;;5.67;100.00;147607.38;4979652;28;20699;-53
2023/12/20 10:13:03;;;;;;;0.00;0.00;;;;;;;5.83;100.00;147645.84;4979366;28;20226;-52
2023/12/20 10:15:30;;;;;;;0.00;0.00;;;;;;;5.86;99.65;147652.06;4978322;28;20233;-55
2023/12/20 10:17:57;;;;;;;0.00;0.00;;;;;;;5.95;100.00;147674.44;4979625;28;20288;-55
2023/12/20 10:20:25;;;;;;;0.00;0.00;;;;;;;5.75;96.83;147627.25;4976377;28;20248;-54
2023/12/20 10:22:53;;;;;;;0.00;0.00;;;;;;;5.64;97.25;147599.94;4977782;28;20228;-55
2023/12/20 10:25:20;;;;;;;0.00;0.00;;;;;;;5.63;97.46;147596.22;4974841;28;20598;-53
2023/12/20 10:27:47;;;;;;;0.00;0.00;;;;;;;5.75;99.57;147627.25;4980774;28;20319;-53
2023/12/20 10:30:14;;;;;;;0.00;0.00;;;;;;;5.60;98.87;147590.00;4973793;28;20245;-52
2023/12/20 10:32:41;;;;;;;0.00;0.00;;;;;;;5.44;98.23;147552.75;4978179;28;20696;-52
2023/12/20 10:35:09;;;;;;;0.00;0.00;;;;;;;5.56;97.37;147580.06;4974933;28;20700;-54
2023/12/20 10:37:38;;;;;;;0.00;0.00;;;;;;;5.56;96.82;147580.06;4978352;28;20225;-54
2023/12/20 10:40:06;;;;;;;0.00;0.00;;;;;;;5.55;97.83;147577.59;4973889;28;20226;-55
2023/12/20 10:42:34;;;;;;;0.00;0.00;;;;;;;5.55;97.83;147578.84;4977775;28;20244;-52
2023/12/20 10:45:01;;;;;;;0.00;0.00;;;;;;;5.53;96.30;147572.63;4977842;28;20318;-55
2023/12/20 10:47:29;;;;;;;0.00;0.00;;;;;;;5.66;94.58;147604.91;4975863;28;20224;-52
2023/12/20 10:49:56;;;;;;;0.00;0.00;;;;;;;5.48;95.82;147561.47;4977032;28;20231;-52
2023/12/20 10:52:24;;;;;;;0.00;0.00;;;;;;;5.43;96.90;147549.06;4965638;28;20228;-55
2023/12/20 10:54:52;;;;;;;0.00;0.00;;;;;;;5.52;96.28;147570.13;4977834;28;20229;-54
2023/12/20 10:57:20;;;;;;;0.00;0.00;;;;;;;5.57;93.71;147582.56;4952420;28;20229;-53
2023/12/20 10:59:47;;;;;;;0.00;0.00;;;;;;;5.73;93.49;147621.06;4989620;28;20228;-54
2023/12/20 11:02:14;;;;;;;0.00;0.00;;;;;;;5.74;94.04;147624.75;4974100;28;20308;-55
2023/12/20 11:04:48;;;;;;;0.00;0.00;;;;;;;5.86;94.72;147653.28;4979471;28;20232;-53
2023/12/20 11:07:21;;;;;;;0.00;0.00;;;;;;;5.74;89.56;147623.53;4974904;28;20309;-53
2023/12/20 11:09:57;;;;;;;0.03;0.03;;;;;;;5.70;94.10;147613.59;4977200;28;20221;-52
2023/12/20 11:12:36;;;;;;;0.00;0.00;;;;;;;5.85;94.08;147649.59;4975768;28;20220;-55
2023/12/20 11:15:04;;;;;;;0.00;0.00;;;;;;;5.91;94.30;147664.50;4978636;28;20725;-54
2023/12/20 11:17:33;;;;;;;0.00;0.00;;;;;;;5.81;94.97;147639.66;4972348;28;20229;-55
2023/12/20 11:20:12;;;;;;;0.00;0.00;;;;;;;5.93;93.45;147669.44;4976818;28;20218;-54
2023/12/20 11:22:41;;;;;;;0.00;0.00;;;;;;;5.99;92.66;147684.34;4974410;28;20724;-53
2023/12/20 11:25:11;;;;;;;0.00;0.00;;;;;;;6.15;92.53;147721.66;4977219;28;20816;-55
2023/12/20 11:27:42;;;;;;;0.00;0.00;;;;;;;6.05;91.30;147699.31;4978518;28;20236;-56